Timeline UpdatesTrip UpdatesNews PostsPvt PostsTravel TipsAdmin PostsConv PostsFollowed PostsChat RequestsBlog PostsPNR Posts

Disclaimer
Search
 
 
Fri Jul 25, 2014 10:48:40 ISTHomeTrainsΣChainsAtlasPNRForumGalleryNewsFAQTripsMembersLoginFeedback
No Recent News for this Train
Other Trains in the News **new
Latest...
Cancelled on 22/5/14 due to rake shortage
Mon May 19, 2014 (06:13PM)
⇐ Return Journey: Train# 13007

13008/Udyan Abha Toofan Express

Feb 21 2014 (2:35PM)
Change Departure Station:
Change Arrival Station:
Post a Train Travel TipPost a Train Travel Tip **new
Post a Comment/Question/Picture/VideoPost a Comment/Question/Picture/Video
Inaugural Run
Wed Jan 01, 1930
Pantry/Catering
✕ NO Pantry Car
✕ NO Catering
Loco/Rake Reversals
AGC/Agra Cantt. (6);
RSA - Rake Sharing
Rake/Coach Composition
LOCO-HCPV-HCPV-SLR-GEN-GEN-S1-S2-S3-S4-S5-B1-GEN-GEN-SLR.;;Entry# 252065 Author: mohantoursandtravels ;;Loco Reversal at Agra Cannt(AGC)
Loco
SGNR-NDLS: TKD WDM-3A NDLS-HWH: HWH WAP-4
News    PNR    Forum    Time-Table    Availability    Fare Chart    Map    Arr/Dep History    Trips    Gallery    ΣChains    X/O    Timeline    
Travel Time: 15h 54m    44 halts    Distance: 621 km    Avg Speed: 39 km/hr
Type: Mail/Express
Zone: ER/Eastern
Departs @ 03:26
Platform# ???
SMTWTFS
Banahi/BYN 
Arrives @ 19:20
Platform# 7
SMTWTFS
Kolkata Howrah Junction/HWH 

44 halts. 152 intermediate Stations between Banahi and Kolkata Howrah Junction

Show ALL intermediate Stations  Show Old Time-Table

#CodeStation NameX/OArrivesAvgDepartsAvgHaltPFDay#KmSpeedElevZoneAddress
1SGNRShri Ganganagar  -21:00-31-1361.778178mNWRSri Ganganagar, Rajasthan
2ABSAbohar  21:41-21:43-2m--1-1308.768186mNRAbohar, Punjab
3MOTMalout (1)  22:09-22:11-2m11-1279.261194mNRMalaut, Punjab
4GDBGiddarbaha  22:27-22:29-2m--1-1263.041200mNRGiddarbaha, Punjab
5BTIBathinda Junction (6)  23:10-00:05-55m51-1235.279208mNRBathinda, Punjab
6MAURMaur  00:32-00:34-2m--2-1199.670220mNRMaur Mandi, Punjab
7MSZMansa  00:50-00:52-2m--2-1180.954222mNRMansa, Punjab
8BLZBudhlada  01:10-01:12-2m--2-1164.847223mNRBudhlada, Punjab
9JHLJakhal JunctionX  01:50-01:55-5m--2-1135.267225mNRJakhal, Haryana
10TUNTohana (2)  02:06-02:08-2m--2-1123.076232mNRTohana, Haryana
11NRWNarwana Junction (4)  02:28-02:30-2m--2-1097.570235mNRWay to Narwana, Haryana
12UCAUchanaX  02:43-02:45-2m--2-1082.356225mNRDistrict Jind, Haryana
13JINDJind Junction (3)  03:05-03:10-5m--2-1063.673222mNR126102., Haryana
14JNAJulana  03:31-03:33-2m--2-1037.963226mNRJulana, Haryana
15ROKRohtak Junction (3)  04:03-04:07-4m--2-1006.579220mNRRohtak, Haryana
16SPZSampla  04:24-04:26-2m--2-984.254222mNRSampla, Haryana
17BGZBahadurgarh  04:46-04:48-2m--2-966.342220mNRBahadurgarh, Haryana
18NNONangloiX  05:06-05:08-2m22-953.815219mNRJJ Colony No 1, Delhi NCT
19SSBShakur Basti  05:38-05:40-2m--2-946.326216mNRPitampura, Delhi NCT
20DKZDelhi KishanGanj (2)X  05:56-05:58-2m--2-939.47220mNRSarai Rohilla, Delhi NCT
21NDLSNew Delhi (16)X  06:30-07:00-30m52-935.523215mNRNew Delhi, Delhi NCT
22TKDTuglakabad (4)XO  07:45-07:47-2m--2-918.426213mNRNear Tughlakabad Metro Station, Delhi NCT
23FDBFaridabad (4)  08:13-08:15-2m32-907.337206mNRold Faridabad, Haryana
24BVHBallabgarh (5)X  08:28-08:30-2m22-899.253203mNRFaridabad, Haryana
25PWLPalwal (8)X  08:54-08:56-2m--2-878.185200mNRPalwal, Haryana
26KSVKosi Kalan (3)X  09:26-09:28-2m22-835.656189mNCRKosi Kalan, Uttar Pradesh
27CHJChata (4)X  09:39-09:41-2m--2-825.329185mNCRChhata, Uttar Pradesh
28MTJMathura Junction (10)XO  10:45-10:50-5m12-794.153179mNCRMathura, Uttar Pradesh
29RKMRaja Ki Mandi (4)  11:46-11:48-2m22-744.511170mNCRAgra, Uttar Pradesh
30AGCAgra Cantt. (6)12:10-12:40-30m42-740.516174mNCRAgra, Uttar Pradesh
31IDHIdgah Agra Junction (3)  12:48-12:50-2m--2-738.311168mNCRAgra, Uttar Pradesh
32AFAgra Fort (3)  13:02-13:07-5m12-736.129170mNCRRakabganj, Uttar Pradesh
33TDLTundla Junction (5)  13:55-14:05-10m--2-713.252167mNCRDistt.Firozabad, Uttar Pradesh
34FZDFirozabad (4)X  14:24-14:26-2m22-696.763164mNCRFirozabad, Uttar Pradesh
35SKBShikohabad Junction (4)X  14:45-14:47-2m22-676.892166mNCRDistrict Firozabad, Uttar Pradesh
36BDNBhadan (2)X  15:00-15:02-2m--2-656.878160mNCRFirozabad, Uttar Pradesh
37JGRJaswantnagar (2)  15:17-15:19-2m--2-637.350154mNCRJaswantnagar, Uttar Pradesh
38ETWEtawah (5)  15:38-15:40-2m32-621.485154mNCRDistt. Etawah, Uttar Pradesh
39BNTBharthana (3)  15:54-15:56-2m--2-601.569147mNCRBharthana, Uttar Pradesh
40ULDAchalda (3)X  16:13-16:15-2m--2-582.084147mNCRDist. Auraiya(05688-1072), Uttar Pradesh
41PHDPhaphund (4)X  16:27-16:29-2m--2-565.285146mNCRdist. Auraiya, Uttar Pradesh
42JJKJhinjhak (3)  16:43-16:45-2m22-545.476140mNCRAuraiya, Uttar Pradesh
43RURARura (4)X  17:00-17:02-2m--2-526.352137mNCRJhinjhak, Uttar Pradesh
44PNKPanki (3)XO  17:40-17:42-2m--2-493.542129mNCRKANPUR-208 020, Uttar Pradesh
45GOYGovindpuri Junction (2)  17:53-17:55-2m22-485.98129mNCRKANPUR-208 006, Uttar Pradesh
46CNBKanpur Central (10)  18:25-18:40-15m--2-482.158128mNCRKANPUR-208 001, Uttar Pradesh
47BKOBindki Road  19:28-19:30-2m--2-435.867124mNCRFatehpur, Uttar Pradesh
48FTPFatehpur (3)X  19:58-20:00-2m--2-404.590120mNCRFatehpur, Uttar Pradesh
49KGAKhaga (3)X  20:23-20:25-2m--2-369.878114mNCRFatehpur, Uttar Pradesh
50SROSirathu (2)X  20:44-20:46-2m12-345.071109mNCRSirathu, Uttar Pradesh
51BREBharwariO  21:03-21:05-2m--2-324.937108mNCRBharwari, Uttar Pradesh
52ALDAllahabad Junction (10)XO  22:05-22:15-10m62-287.888100mNCRAllahabad 211003, Uttar Pradesh
53BDLVindhyachal (3)XO  23:11-23:13-2m--2-205.62288mNCRMirzapur, Uttar Pradesh
54MZPMirzapur (3)X  23:33-23:35-2m22-198.37288mNCRMirzapur, Uttar Pradesh
55CARChunar Junction (5)XO  00:01-00:02-1m33-167.03085mNCRChunar Junction, Uttar Pradesh
56MGSMughal Sarai Junction (8)X  01:05-01:20-15m13-135.17483mECRMughalsarai 232101, Uttar Pradesh
57ZNAZamania (2)X  01:56-01:58-2m--3-90.86777mECRGhazipur, Uttar Pradesh
58DLNDildarnagar Junction (2)  02:10-02:12-2m--3-77.48072mECRDildarnagar, Uttar Pradesh
59BXRBuxar (3)X  02:39-02:44-5m--3-41.26167mECRBuxar, Bihar
60DUREDumraon (3)X  03:00-03:02-2m--3-24.88070mECRDumraon, Bihar
61RPRRaghunathpur (4)  03:14-03:16-2m--3-8.86669mECRRaghunathpur, Bihar
62BYN»Banahi (2)»  03:24-03:26-2m--30.05167mECRBanahi, Bihar
63BEABihiya (3)X  03:33-03:35-2m--35.97167mECRBehea, Bihar
64ARAAra Junction (3)X  03:53-03:57-4m--327.37463mECRarrah( 06182-233411), Bihar
65KUAKulharia (2)  04:05-04:07-2m--337.23161mECRChandi Sahar Rd, Bihar
66KWRKoelwar (2)O  04:14-04:16-2m--340.85865mECRNational Highway 30, Bihar
67BTABihta (2)  04:25-04:27-2m--349.54262mECRDistt: Patna, Bihar
68SDESadisopur (2)  04:33-04:35-2m--353.86164mECRSadisopur, Bihar
69NEONeora (2)XO  04:42-04:44-2m--360.8561mECRNational Highway 98, Bihar
70DNRDanapur (5)X  06:00-06:10-10m--366.93858mECRKhagaul, Bihar
71PNBEPatna Junction (10)  06:25-06:35-10m1376.34157mECRPatna 800001, Bihar
72GZHGulzarbagh (3)X  06:45-06:47-2m--383.12655mECRPatna, Bihar
73PNCPatna Saheb (3)  06:54-06:56-2m--386.26159mECRPatna, Bihar
74FUTFatwa (6)  07:08-07:10-2m--398.44653mECRPatna, Bihar
75KOOKhusropur (2)  07:21-07:23-2m--3106.86252mECRPatna, Bihar
76BKPBakhtiyarpur Junction (5)X  07:37-07:39-2m--3121.413651mECRPatna, Bihar
77ATLAthmal Gola (2)  07:43-07:45-2m--3130.51852mECRPatna, Bihar
78BARHBarh (3)  08:16-08:18-2m--3139.66949mECRBarh, Bihar
79PHKPunarakhX  08:27-08:29-2m--3150.06251mECRPunarakh, Bihar
80MORMorX  08:37-08:39-2m--3158.34346mECRMor, Bihar
81MKAMokama Junction (3)X  08:49-08:53-4m--3165.57248mECRPatna, Bihar
82HTZHathidah Junction (2)  09:00-09:02-2m13173.96350mECRMusahari, Bihar
83BRYABarhiya (3)  09:11-09:13-2m--3183.35147mECRBarahiya, Bihar
84DMRXDumri Halt (1)  09:18-09:20-2m13187.64549mECRNational Highway 80, Bihar
85MKBMankathaX  09:27-09:29-2m--3192.83047mECRNational Highway 80, Bihar
86LKRLuckeesarai Junction (2)XO  09:40-09:42-2m--3198.4852mECRLakhisarai, Bihar
87KIULKiul Junction (5)X  09:52-09:56-4m--3199.83853mECRDist. Lakhisarai, Bihar
88BSQPBansipur  10:03-10:05-2m--3204.12553mECRKiul, Bihar
89MNPMananpur (2)  10:11-10:13-2m--3206.78257mECRState Highway 18, Bihar
90JMUJamui (3)O  10:28-10:30-2m--3227.13081mECRState Highway 72, Bihar
91GHRGidhaur (2)  10:59-11:01-2m--3241.613106mECRState Highway 18, Bihar
92JAJJhajha (4)  11:52-11:57-5m--3253.175143mECRJhajha, Bihar
93STLSimultala (2)X  12:12-12:14-2m--3271.769247mERSimultala, Bihar
94JSMEJasidih Junction (5)X  12:36-12:41-5m--3297.270271mERJasidih, Jharkhand
95MDPMadhupur Junction (4)X  13:06-13:10-4m33326.281254mER06432-224478, Jharkhand
96VDSVidyasagar (2)  13:28-13:30-2m--3350.467250mERJamtara, Jharkhand
97JMTJamtara (2)X  13:46-13:48-2m23368.354201mERJamtara, Jharkhand
98CRJChittaranjan (3)X  14:04-14:06-2m23382.658182mERMihijam, Jharkhand
99STNSitarampur Junction (5)X  14:23-14:25-2m--3398.918139mERG T Rd Before Asansol, West Bengal
100ASNAsansol Junction (7)X  14:55-15:10-15m--3407.772113mERDist - bardhaman, West Bengal
101RNGRaniGanj (4)X  15:25-15:27-2m--3425.83692mERRaniganj, West Bengal
102UDLAndal Junction (6)X  15:39-15:41-2m--3433.17386mERAndal, West Bengal
103DGRDurgapur (5)X  15:55-15:57-2m--3450.19471mERDurgapur, West Bengal
104PANPanagarh (4)X  16:07-16:09-2m--3465.75570mERKaksa, West Bengal
105BWNBarddhaman Junction (8)X  17:01-17:06-5m--3513.75534mERDist - Barddhaman, West Bengal
106BDCBandel Junction (7)X  18:20-18:25-5m--3580.94314mERdist - HOOGHLY, West Bengal
107HWH•Kolkata Howrah Junction (23)•  19:20--73620.5-10mERHowrah 711101, West Bengal
Scroll to Top
Scroll to Bottom